createdAt,value
2023-01-10T00:00:52.042Z,7.40
2023-01-10T00:03:22.905Z,7.30
2023-01-10T00:05:56.072Z,7.30
2023-01-10T00:08:26.423Z,7.30
2023-01-10T00:10:56.787Z,7.30
2023-01-10T00:13:27.205Z,7.20
2023-01-10T00:15:58.813Z,7.30
2023-01-10T00:18:29.174Z,7.20
2023-01-10T00:21:02.103Z,7.30
2023-01-10T00:23:39.512Z,7.30
2023-01-10T00:26:09.905Z,7.20
2023-01-10T00:28:45.635Z,7.30
2023-01-10T00:31:16.942Z,7.30
2023-01-10T00:33:47.330Z,7.30
2023-01-10T00:36:17.745Z,7.10
2023-01-10T00:38:48.027Z,7.20
2023-01-10T00:41:30.492Z,7.20
2023-01-10T00:44:03.620Z,7.20
2023-01-10T00:46:34.224Z,7.20
2023-01-10T00:49:12.088Z,7.10
2023-01-10T00:51:42.464Z,7.20
2023-01-10T00:54:12.948Z,7.10
2023-01-10T00:56:43.439Z,7.20
2023-01-10T00:59:16.362Z,7.20
2023-01-10T01:01:46.843Z,7.20
2023-01-10T01:04:17.305Z,7.20
2023-01-10T01:06:49.072Z,7.20
2023-01-10T01:09:19.724Z,7.20
2023-01-10T01:11:50.104Z,7.20
2023-01-10T01:14:23.045Z,7.30
2023-01-10T01:16:53.521Z,7.20
2023-01-10T01:19:23.835Z,7.20
2023-01-10T01:21:54.351Z,7.20
2023-01-10T01:24:25.120Z,7.30
2023-01-10T01:26:55.589Z,7.20
2023-01-10T01:29:42.315Z,7.30
2023-01-10T01:32:13.298Z,7.40
2023-01-10T01:34:43.758Z,7.30
2023-01-10T01:37:14.157Z,7.30
2023-01-10T01:39:44.628Z,7.30
2023-01-10T01:42:25.203Z,7.30
2023-01-10T01:45:27.773Z,7.30
2023-01-10T01:48:12.248Z,7.30
2023-01-10T01:50:48.921Z,7.30
2023-01-10T01:53:26.090Z,7.30
2023-01-10T01:55:59.089Z,7.20
2023-01-10T01:58:34.624Z,7.30
2023-01-10T02:01:05.519Z,7.20
2023-01-10T02:03:39.613Z,7.20
2023-01-10T02:06:11.245Z,7.20
2023-01-10T02:08:47.866Z,7.20
2023-01-10T02:11:18.257Z,7.10
2023-01-10T02:13:51.900Z,7.20
2023-01-10T02:16:22.268Z,7.10
2023-01-10T02:18:55.234Z,7.20
2023-01-10T02:21:59.634Z,7.20
2023-01-10T02:25:20.967Z,7.20
2023-01-10T02:28:13.830Z,7.10
2023-01-10T02:31:22.826Z,7.20
2023-01-10T02:34:05.916Z,7.20
2023-01-10T02:36:43.605Z,7.20
2023-01-10T02:39:22.057Z,7.20
2023-01-10T02:42:00.171Z,7.20
2023-01-10T02:44:37.736Z,7.10
2023-01-10T02:47:10.659Z,7.10
2023-01-10T02:49:51.071Z,7.10
2023-01-10T02:52:25.011Z,7.10
2023-01-10T02:55:01.473Z,7.10
2023-01-10T02:57:49.649Z,7.10
2023-01-10T03:00:46.536Z,7.10
2023-01-10T03:03:33.669Z,7.10
2023-01-10T03:06:18.934Z,7.10
2023-01-10T03:08:57.906Z,7.00
2023-01-10T03:11:44.145Z,7.10
2023-01-10T03:14:28.011Z,7.00
2023-01-10T03:17:03.955Z,7.00
2023-01-10T03:19:38.820Z,7.10
2023-01-10T03:22:13.034Z,7.00
2023-01-10T03:24:45.954Z,7.00
2023-01-10T03:27:23.098Z,7.10
2023-01-10T03:29:59.358Z,7.10
2023-01-10T03:32:33.084Z,7.00
2023-01-10T03:35:05.197Z,7.00
2023-01-10T03:37:44.911Z,7.00
2023-01-10T03:40:22.755Z,7.10
2023-01-10T03:43:12.240Z,7.10
2023-01-10T03:45:47.371Z,7.10
2023-01-10T03:48:21.478Z,7.10
2023-01-10T03:50:53.427Z,7.10
2023-01-10T03:53:26.621Z,7.10
2023-01-10T03:55:57.361Z,7.20
2023-01-10T03:58:27.661Z,7.10
2023-01-10T04:00:58.073Z,7.10
2023-01-10T04:03:28.509Z,7.10
2023-01-10T04:05:58.857Z,7.20
2023-01-10T04:08:31.863Z,7.10
2023-01-10T04:11:02.206Z,7.00
2023-01-10T04:13:32.669Z,7.00
2023-01-10T04:16:03.636Z,7.00
2023-01-10T04:18:34.026Z,7.00
2023-01-10T04:21:04.642Z,6.90
2023-01-10T04:23:37.609Z,6.90
2023-01-10T04:26:08.410Z,6.90
2023-01-10T04:28:38.757Z,6.90
2023-01-10T04:31:09.441Z,6.80
2023-01-10T04:33:41.095Z,6.90
2023-01-10T04:36:12.045Z,6.80
2023-01-10T04:38:45.044Z,6.80
2023-01-10T04:41:15.348Z,6.80
2023-01-10T04:43:45.793Z,6.80
2023-01-10T04:46:16.104Z,6.80
2023-01-10T04:48:46.643Z,6.70
2023-01-10T04:51:17.037Z,6.70
2023-01-10T04:53:50.014Z,6.70
2023-01-10T04:56:22.133Z,6.80
2023-01-10T04:58:54.189Z,6.70
2023-01-10T05:01:26.527Z,6.60
2023-01-10T05:03:58.595Z,6.60
2023-01-10T05:06:29.019Z,6.70
2023-01-10T05:09:02.282Z,6.70
2023-01-10T05:11:32.594Z,6.60
2023-01-10T05:14:02.994Z,6.60
2023-01-10T05:16:33.643Z,6.60
2023-01-10T05:19:04.036Z,6.50
2023-01-10T05:21:37.749Z,6.60
2023-01-10T05:24:11.824Z,6.60
2023-01-10T05:26:42.143Z,6.50
2023-01-10T05:29:14.640Z,6.50
2023-01-10T05:31:45.247Z,6.50
2023-01-10T05:34:15.843Z,6.50
2023-01-10T05:36:46.228Z,6.50
2023-01-10T05:39:19.356Z,6.50
2023-01-10T05:41:49.733Z,6.40
2023-01-10T05:44:20.041Z,6.40
2023-01-10T05:46:50.406Z,6.50
2023-01-10T05:49:20.720Z,6.40
2023-01-10T05:51:50.980Z,6.30
2023-01-10T05:54:24.015Z,6.40
2023-01-10T05:56:54.326Z,6.40
2023-01-10T05:59:28.481Z,6.30
2023-01-10T06:01:59.288Z,6.30
2023-01-10T06:04:29.655Z,6.40
2023-01-10T06:07:00.034Z,6.30
2023-01-10T06:09:33.237Z,6.30
2023-01-10T06:12:03.586Z,6.30
2023-01-10T06:14:33.972Z,6.30
2023-01-10T06:17:08.733Z,6.20
2023-01-10T06:19:39.253Z,6.10
2023-01-10T06:22:09.838Z,6.20
2023-01-10T06:24:42.988Z,6.20
2023-01-10T06:27:13.379Z,6.10
2023-01-10T06:29:43.704Z,6.00
2023-01-10T06:32:13.967Z,6.00
2023-01-10T06:34:44.399Z,6.00
2023-01-10T06:37:14.785Z,6.00
2023-01-10T06:39:47.871Z,6.10
2023-01-10T06:42:18.251Z,6.10
2023-01-10T06:44:48.649Z,6.10
2023-01-10T06:47:19.015Z,6.00
2023-01-10T06:49:49.347Z,6.10
2023-01-10T06:52:19.658Z,6.10
2023-01-10T06:54:53.271Z,6.10
2023-01-10T06:57:23.647Z,6.00
2023-01-10T06:59:54.033Z,6.00
2023-01-10T07:02:24.454Z,6.00
2023-01-10T07:04:55.047Z,6.10
2023-01-10T07:07:25.570Z,6.00
2023-01-10T07:09:59.892Z,6.00
2023-01-10T07:12:30.336Z,6.00
2023-01-10T07:15:00.661Z,6.00
2023-01-10T07:17:32.373Z,6.00
2023-01-10T07:20:02.676Z,6.00
2023-01-10T07:22:33.068Z,6.00
2023-01-10T07:25:06.255Z,5.90
2023-01-10T07:27:37.307Z,6.00
2023-01-10T07:30:09.058Z,6.00
2023-01-10T07:32:39.386Z,5.90
2023-01-10T07:35:10.236Z,5.90
2023-01-10T07:37:40.586Z,5.90
2023-01-10T07:40:15.412Z,5.90
2023-01-10T07:42:45.687Z,6.00
2023-01-10T07:45:15.997Z,6.00
2023-01-10T07:47:46.344Z,5.90
2023-01-10T07:50:18.136Z,5.90
2023-01-10T07:52:48.591Z,5.90
2023-01-10T07:55:21.975Z,5.90
2023-01-10T07:57:53.225Z,5.90
2023-01-10T08:00:24.470Z,5.90
2023-01-10T08:02:56.898Z,5.90
2023-01-10T08:05:27.286Z,6.00
2023-01-10T08:08:00.446Z,5.90
2023-01-10T08:10:33.488Z,5.90
2023-01-10T08:13:17.443Z,5.90
2023-01-10T08:15:50.495Z,5.90
2023-01-10T08:18:21.749Z,5.90
2023-01-10T08:20:52.941Z,5.90
2023-01-10T08:23:23.944Z,5.90
2023-01-10T08:25:57.084Z,6.00
2023-01-10T08:28:27.460Z,6.00
2023-01-10T08:30:58.334Z,6.00
2023-01-10T08:33:30.324Z,6.00
2023-01-10T08:36:00.698Z,6.00
2023-01-10T08:38:32.005Z,6.00
2023-01-10T08:41:05.049Z,6.00
2023-01-10T08:43:35.441Z,6.10
2023-01-10T08:46:05.851Z,6.10
2023-01-10T08:48:36.629Z,6.10
2023-01-10T08:51:12.212Z,6.10
2023-01-10T08:53:42.986Z,6.10
2023-01-10T08:56:15.961Z,6.10
2023-01-10T08:58:46.611Z,6.10
2023-01-10T09:01:17.286Z,6.20
2023-01-10T09:03:47.919Z,6.20
2023-01-10T09:06:18.268Z,6.20
2023-01-10T09:08:48.671Z,6.20
2023-01-10T09:11:21.629Z,6.20
2023-01-10T09:13:53.248Z,6.30
2023-01-10T09:16:23.963Z,6.30
2023-01-10T09:18:55.886Z,6.30
2023-01-10T09:21:26.285Z,6.40
2023-01-10T09:23:56.759Z,6.40
2023-01-10T09:26:29.830Z,6.40
2023-01-10T09:29:00.243Z,6.40
2023-01-10T09:31:30.663Z,6.40
2023-01-10T09:34:01.165Z,6.40
2023-01-10T09:36:31.638Z,6.50
2023-01-10T09:39:02.292Z,6.50
2023-01-10T09:41:54.474Z,6.60
2023-01-10T09:44:33.957Z,6.60
2023-01-10T09:47:21.971Z,6.60
2023-01-10T09:50:04.107Z,6.60
2023-01-10T09:52:40.840Z,6.60
2023-01-10T09:55:22.077Z,6.70
2023-01-10T09:57:56.068Z,6.70
2023-01-10T10:00:34.419Z,6.70
2023-01-10T10:03:08.666Z,6.70
2023-01-10T10:05:39.971Z,6.80
2023-01-10T10:08:19.265Z,6.80
2023-01-10T10:11:02.169Z,6.80
2023-01-10T10:13:50.110Z,6.90
2023-01-10T10:16:33.870Z,6.80
2023-01-10T10:19:15.714Z,6.90
2023-01-10T10:21:56.859Z,6.90
2023-01-10T10:24:39.803Z,6.90
2023-01-10T10:27:19.191Z,7.00
2023-01-10T10:30:27.914Z,7.00
2023-01-10T10:33:18.505Z,7.00
2023-01-10T10:35:56.233Z,7.10
2023-01-10T10:38:32.337Z,7.10
2023-01-10T10:41:04.449Z,7.10
2023-01-10T10:43:37.075Z,7.20
2023-01-10T10:46:12.660Z,7.10
2023-01-10T10:48:50.711Z,7.20
2023-01-10T10:51:28.209Z,7.30
2023-01-10T10:53:59.473Z,7.30
2023-01-10T10:56:30.398Z,7.30
2023-01-10T10:59:02.878Z,7.30
2023-01-10T11:01:36.173Z,7.40
2023-01-10T11:04:11.830Z,7.40
2023-01-10T11:06:49.044Z,7.40
2023-01-10T11:09:23.078Z,7.50
2023-01-10T11:11:56.934Z,7.50
2023-01-10T11:14:47.014Z,7.50
2023-01-10T11:17:28.572Z,7.50
2023-01-10T11:20:01.557Z,7.50
2023-01-10T11:22:35.101Z,7.50
2023-01-10T11:25:06.135Z,7.60
2023-01-10T11:27:46.631Z,7.60
2023-01-10T11:30:24.610Z,7.60
2023-01-10T11:33:00.449Z,7.60
2023-01-10T11:35:33.891Z,7.60
2023-01-10T11:38:06.904Z,7.60
2023-01-10T11:40:39.579Z,7.60
2023-01-10T11:43:28.961Z,7.70
2023-01-10T11:46:02.716Z,7.70
2023-01-10T11:49:05.440Z,7.70
2023-01-10T11:51:40.554Z,7.70
2023-01-10T11:54:16.264Z,7.80
2023-01-10T11:56:57.117Z,7.80
2023-01-10T11:59:29.422Z,7.80
2023-01-10T12:02:04.988Z,7.80
2023-01-10T12:04:44.676Z,7.80
2023-01-10T12:07:15.744Z,7.90
2023-01-10T12:09:47.764Z,7.90
2023-01-10T12:12:24.589Z,7.90
2023-01-10T12:14:56.280Z,7.90
2023-01-10T12:17:29.510Z,7.90
2023-01-10T12:20:05.166Z,8.00
2023-01-10T12:22:40.049Z,8.00
2023-01-10T12:25:21.347Z,8.00
2023-01-10T12:27:53.063Z,8.10
2023-01-10T12:30:32.468Z,8.10
2023-01-10T12:33:06.934Z,8.00
2023-01-10T12:35:44.038Z,8.10
2023-01-10T12:38:40.110Z,8.10
2023-01-10T12:41:33.831Z,8.10
2023-01-10T12:44:13.236Z,8.10
2023-01-10T12:47:09.169Z,8.10
2023-01-10T12:49:47.758Z,8.10
2023-01-10T12:52:31.177Z,8.20
2023-01-10T12:55:03.347Z,8.10
2023-01-10T12:57:36.799Z,8.20
2023-01-10T13:00:10.661Z,8.00
2023-01-10T13:02:45.066Z,8.10
2023-01-10T13:05:22.796Z,8.10
2023-01-10T13:08:02.361Z,8.10
2023-01-10T13:10:34.066Z,8.10
2023-01-10T13:13:09.451Z,8.10
2023-01-10T13:15:45.603Z,8.10
2023-01-10T13:18:22.081Z,8.10
2023-01-10T13:20:52.732Z,8.10
2023-01-10T13:23:30.990Z,8.10
2023-01-10T13:26:09.324Z,8.10
2023-01-10T13:28:41.338Z,8.10
2023-01-10T13:31:26.733Z,8.10
2023-01-10T13:34:00.362Z,8.00
2023-01-10T13:36:33.124Z,8.10
2023-01-10T13:39:09.183Z,8.10
2023-01-10T13:42:21.857Z,8.10
2023-01-10T13:45:24.379Z,8.10
2023-01-10T13:48:22.954Z,8.00
2023-01-10T13:51:08.593Z,8.00
2023-01-10T13:53:57.935Z,8.00
2023-01-10T13:56:42.461Z,8.00
2023-01-10T13:59:30.137Z,8.00
2023-01-10T14:02:16.008Z,7.90
2023-01-10T14:04:53.158Z,7.90
2023-01-10T14:07:30.269Z,7.90
2023-01-10T14:10:07.370Z,7.90
2023-01-10T14:12:43.070Z,7.90
2023-01-10T14:15:26.647Z,7.90
2023-01-10T14:18:03.533Z,7.90
2023-01-10T14:20:36.465Z,7.90
2023-01-10T14:23:09.490Z,7.90
2023-01-10T14:25:41.350Z,7.90
2023-01-10T14:28:25.009Z,7.90
2023-01-10T14:31:05.479Z,7.90
2023-01-10T14:33:37.046Z,7.80
2023-01-10T14:36:13.016Z,7.80
2023-01-10T14:38:43.846Z,7.80
2023-01-10T14:41:21.905Z,7.80
2023-01-10T14:44:00.572Z,7.80
2023-01-10T14:46:36.808Z,7.70
2023-01-10T14:49:23.550Z,7.80
2023-01-10T14:51:56.284Z,7.70
2023-01-10T14:54:26.672Z,7.80
2023-01-10T14:56:57.672Z,7.70
2023-01-10T14:59:34.324Z,7.70
2023-01-10T15:02:13.863Z,7.70
2023-01-10T15:04:55.441Z,7.70
2023-01-10T15:07:26.867Z,7.70
2023-01-10T15:09:59.353Z,7.70
2023-01-10T15:12:33.545Z,7.70
2023-01-10T15:15:10.030Z,7.70
2023-01-10T15:17:41.041Z,7.70
2023-01-10T15:20:16.932Z,7.70
2023-01-10T15:22:51.160Z,7.70
2023-01-10T15:25:31.880Z,7.70
2023-01-10T15:28:03.231Z,7.70
2023-01-10T15:30:40.394Z,7.70
2023-01-10T15:33:16.119Z,7.70
2023-01-10T15:35:46.892Z,7.70
2023-01-10T15:38:20.485Z,7.70
2023-01-10T15:40:58.488Z,7.70
2023-01-10T15:43:30.144Z,7.70
2023-01-10T15:46:05.375Z,7.70
2023-01-10T15:48:38.607Z,7.70
2023-01-10T15:51:17.778Z,7.70
2023-01-10T15:53:57.969Z,7.60
2023-01-10T15:56:31.908Z,7.70
2023-01-10T15:59:03.202Z,7.70
2023-01-10T16:01:37.837Z,7.70
2023-01-10T16:04:15.336Z,7.70
2023-01-10T16:06:45.865Z,7.70
2023-01-10T16:09:22.808Z,7.60
2023-01-10T16:12:07.211Z,7.70
2023-01-10T16:14:38.037Z,7.70
2023-01-10T16:17:11.594Z,7.70
2023-01-10T16:19:44.649Z,7.70
2023-01-10T16:22:21.041Z,7.70
2023-01-10T16:24:52.978Z,7.70
2023-01-10T16:27:23.575Z,7.80
2023-01-10T16:29:53.908Z,7.80
2023-01-10T16:32:26.969Z,7.80
2023-01-10T16:34:57.336Z,7.80
2023-01-10T16:37:27.919Z,7.80
2023-01-10T16:39:59.754Z,7.90
2023-01-10T16:42:42.486Z,7.80
2023-01-10T16:45:13.681Z,7.90
2023-01-10T16:47:46.804Z,7.90
2023-01-10T16:50:17.661Z,7.90
2023-01-10T16:52:48.123Z,7.90
2023-01-10T16:55:20.340Z,8.00
2023-01-10T16:57:51.901Z,7.90
2023-01-10T17:00:23.131Z,7.90
2023-01-10T17:02:56.405Z,8.00
2023-01-10T17:05:27.185Z,8.00
2023-01-10T17:07:57.599Z,8.00
2023-01-10T17:10:27.998Z,8.10
2023-01-10T17:12:58.565Z,8.10
2023-01-10T17:15:28.964Z,8.10
2023-01-10T17:18:01.991Z,8.10
2023-01-10T17:20:32.660Z,8.10
2023-01-10T17:23:03.222Z,8.20
2023-01-10T17:25:33.631Z,8.20
2023-01-10T17:28:04.091Z,8.20
2023-01-10T17:30:34.461Z,8.20
2023-01-10T17:33:11.050Z,8.30
2023-01-10T17:35:43.134Z,8.30
2023-01-10T17:38:15.377Z,8.30
2023-01-10T17:40:46.427Z,8.30
2023-01-10T17:43:17.547Z,8.30
2023-01-10T17:45:49.320Z,8.30
2023-01-10T17:48:23.174Z,8.40
2023-01-10T17:50:59.359Z,8.40
2023-01-10T17:53:30.265Z,8.40
2023-01-10T17:56:01.421Z,8.40
2023-01-10T17:58:32.452Z,8.40
2023-01-10T18:01:03.144Z,8.40
2023-01-10T18:03:36.590Z,8.40
2023-01-10T18:06:09.950Z,8.50
2023-01-10T18:08:43.030Z,8.50
2023-01-10T18:11:13.712Z,8.50
2023-01-10T18:13:44.185Z,8.50
2023-01-10T18:16:14.571Z,8.50
2023-01-10T18:18:47.574Z,8.50
2023-01-10T18:21:19.390Z,8.50
2023-01-10T18:23:57.136Z,8.50
2023-01-10T18:26:27.461Z,8.50
2023-01-10T18:28:57.894Z,8.50
2023-01-10T18:31:28.398Z,8.50
2023-01-10T18:34:01.528Z,8.60
2023-01-10T18:36:34.013Z,8.60
2023-01-10T18:39:04.535Z,8.70
2023-01-10T18:41:34.977Z,8.80
2023-01-10T18:44:05.586Z,8.70
2023-01-10T18:46:35.956Z,8.70
2023-01-10T18:49:09.054Z,8.70
2023-01-10T18:51:39.448Z,8.70
2023-01-10T18:54:09.942Z,8.70
2023-01-10T18:56:40.657Z,8.80
2023-01-10T18:59:11.048Z,8.80
2023-01-10T19:01:41.562Z,8.80
2023-01-10T19:04:14.869Z,8.80
2023-01-10T19:06:45.522Z,8.80
2023-01-10T19:09:15.993Z,8.90
2023-01-10T19:11:46.307Z,8.90
2023-01-10T19:14:16.688Z,8.90
2023-01-10T19:16:47.111Z,8.90
2023-01-10T19:19:20.390Z,8.90
2023-01-10T19:21:50.747Z,9.00
2023-01-10T19:24:24.928Z,9.00
2023-01-10T19:26:55.399Z,9.00
2023-01-10T19:29:26.408Z,9.00
2023-01-10T19:31:56.723Z,9.00
2023-01-10T19:34:29.948Z,9.00
2023-01-10T19:37:00.291Z,9.10
2023-01-10T19:39:30.705Z,9.10
2023-01-10T19:42:01.053Z,9.10
2023-01-10T19:44:31.701Z,9.10
2023-01-10T19:47:02.019Z,9.20
2023-01-10T19:49:37.243Z,9.20
2023-01-10T19:52:08.421Z,9.20
2023-01-10T19:54:39.657Z,9.30
2023-01-10T19:57:10.540Z,9.30
2023-01-10T19:59:41.889Z,9.30
2023-01-10T20:02:15.353Z,9.30
2023-01-10T20:04:48.922Z,9.30
2023-01-10T20:07:19.356Z,9.40
2023-01-10T20:09:50.025Z,9.40
2023-01-10T20:12:20.367Z,9.40
2023-01-10T20:14:51.968Z,9.40
2023-01-10T20:17:22.963Z,9.40
2023-01-10T20:19:56.414Z,9.40
2023-01-10T20:22:26.751Z,9.40
2023-01-10T20:24:58.198Z,9.40
2023-01-10T20:27:28.582Z,9.50
2023-01-10T20:29:59.111Z,9.40
2023-01-10T20:32:29.499Z,9.50
2023-01-10T20:35:02.614Z,9.50
2023-01-10T20:37:33.124Z,9.50
2023-01-10T20:40:03.544Z,9.50
2023-01-10T20:42:33.843Z,9.50
2023-01-10T20:45:04.751Z,9.50
2023-01-10T20:47:35.102Z,9.50
2023-01-10T20:50:09.359Z,9.50
2023-01-10T20:52:39.707Z,9.50
2023-01-10T20:55:11.110Z,9.50
2023-01-10T20:57:41.454Z,9.60
2023-01-10T21:00:14.726Z,9.60
2023-01-10T21:02:45.085Z,9.60
2023-01-10T21:05:18.279Z,9.60
2023-01-10T21:07:48.619Z,9.60
2023-01-10T21:10:19.848Z,9.70
2023-01-10T21:12:50.392Z,9.70
2023-01-10T21:15:20.971Z,9.70
2023-01-10T21:17:53.011Z,9.70
2023-01-10T21:20:27.940Z,9.70
2023-01-10T21:22:59.935Z,9.80
2023-01-10T21:25:30.723Z,9.80
2023-01-10T21:28:01.137Z,9.90
2023-01-10T21:30:31.615Z,9.90
2023-01-10T21:33:03.365Z,9.90
2023-01-10T21:35:37.101Z,10.00
2023-01-10T21:38:08.048Z,10.00
2023-01-10T21:40:38.500Z,10.00
2023-01-10T21:43:08.843Z,10.00
2023-01-10T21:45:39.527Z,10.10
2023-01-10T21:48:09.902Z,10.10
2023-01-10T21:50:44.867Z,10.10
2023-01-10T21:53:15.163Z,10.20
2023-01-10T21:55:46.893Z,10.20
2023-01-10T21:58:17.335Z,10.30
2023-01-10T22:00:47.815Z,10.30
2023-01-10T22:03:18.183Z,10.30
2023-01-10T22:05:51.175Z,10.40
2023-01-10T22:08:21.524Z,10.30
2023-01-10T22:10:51.936Z,10.30
2023-01-10T22:13:22.392Z,10.40
2023-01-10T22:15:52.759Z,10.40
2023-01-10T22:18:23.059Z,10.40
2023-01-10T22:20:57.637Z,10.40
2023-01-10T22:23:29.949Z,10.50
2023-01-10T22:26:04.170Z,10.50
2023-01-10T22:28:35.038Z,10.50
2023-01-10T22:31:05.625Z,10.50
2023-01-10T22:33:38.117Z,10.60
2023-01-10T22:36:16.573Z,10.60
2023-01-10T22:38:47.528Z,10.60
2023-01-10T22:41:20.046Z,10.60
2023-01-10T22:43:50.667Z,10.70
2023-01-10T22:46:21.337Z,10.70
2023-01-10T22:48:51.985Z,10.70
2023-01-10T22:51:28.636Z,10.70
2023-01-10T22:53:59.947Z,10.70
2023-01-10T22:56:30.405Z,10.70
2023-01-10T22:59:00.785Z,10.70
2023-01-10T23:01:31.133Z,10.80
2023-01-10T23:04:01.523Z,10.70
2023-01-10T23:06:34.693Z,10.70
2023-01-10T23:09:05.137Z,10.80
2023-01-10T23:11:35.506Z,10.80
2023-01-10T23:14:05.792Z,10.80
2023-01-10T23:16:36.194Z,10.80
2023-01-10T23:19:06.622Z,10.80
2023-01-10T23:21:39.755Z,10.80
2023-01-10T23:24:15.104Z,10.90
2023-01-10T23:26:45.536Z,10.90
2023-01-10T23:29:17.436Z,10.90
2023-01-10T23:31:49.862Z,10.90
2023-01-10T23:34:20.589Z,11.00
2023-01-10T23:36:53.580Z,10.90
2023-01-10T23:39:24.093Z,11.00
2023-01-10T23:41:54.999Z,11.00
2023-01-10T23:44:28.853Z,11.00
2023-01-10T23:46:59.659Z,11.00
2023-01-10T23:49:30.005Z,11.10
2023-01-10T23:52:02.976Z,11.10
2023-01-10T23:54:35.536Z,11.10
2023-01-10T23:57:05.997Z,11.10
2023-01-10T23:59:36.301Z,11.10
